createdAt,value
2022-11-08T00:00:12.858Z,88.09
2022-11-08T00:02:39.806Z,88.27
2022-11-08T00:05:25.974Z,88.67
2022-11-08T00:08:11.224Z,88.81
2022-11-08T00:10:57.053Z,88.69
2022-11-08T00:13:42.335Z,88.56
2022-11-08T00:16:09.070Z,88.29
2022-11-08T00:18:35.822Z,88.06
2022-11-08T00:21:03.443Z,88.10
2022-11-08T00:23:30.521Z,87.75
2022-11-08T00:25:57.587Z,88.71
2022-11-08T00:28:24.373Z,89.23
2022-11-08T00:30:51.123Z,89.82
2022-11-08T00:33:18.295Z,89.81
2022-11-08T00:35:45.041Z,90.31
2022-11-08T00:38:15.088Z,91.19
2022-11-08T00:40:42.043Z,91.93
2022-11-08T00:43:09.119Z,92.68
2022-11-08T00:45:36.054Z,92.83
2022-11-08T00:48:02.847Z,93.71
2022-11-08T00:50:29.642Z,94.50
2022-11-08T00:52:56.389Z,94.71
2022-11-08T00:55:23.200Z,95.53
2022-11-08T00:58:05.190Z,95.82
2022-11-08T01:00:32.123Z,93.47
2022-11-08T01:03:17.387Z,89.24
2022-11-08T01:05:44.465Z,88.20
2022-11-08T01:08:13.223Z,88.73
2022-11-08T01:10:50.425Z,89.58
2022-11-08T01:13:18.576Z,90.26
2022-11-08T01:15:46.651Z,91.10
2022-11-08T01:18:16.813Z,91.92
2022-11-08T01:20:46.428Z,92.03
2022-11-08T01:23:14.491Z,93.22
2022-11-08T01:25:44.911Z,93.19
2022-11-08T01:28:13.342Z,93.44
2022-11-08T01:30:42.841Z,93.41
2022-11-08T01:33:10.711Z,93.53
2022-11-08T01:35:38.308Z,93.39
2022-11-08T01:38:06.708Z,93.36
2022-11-08T01:40:34.695Z,93.87
2022-11-08T01:43:38.169Z,93.89
2022-11-08T01:46:32.430Z,93.39
2022-11-08T01:49:19.074Z,94.06
2022-11-08T01:52:18.238Z,93.98
2022-11-08T01:55:13.837Z,93.43
2022-11-08T01:57:52.589Z,94.18
2022-11-08T02:00:20.303Z,94.55
2022-11-08T02:03:00.625Z,94.04
2022-11-08T02:05:29.908Z,94.19
2022-11-08T02:08:15.195Z,94.51
2022-11-08T02:10:48.296Z,93.98
2022-11-08T02:13:24.078Z,93.86
2022-11-08T02:15:51.849Z,94.23
2022-11-08T02:18:21.940Z,94.17
2022-11-08T02:21:14.386Z,94.18
2022-11-08T02:24:00.234Z,94.70
2022-11-08T02:26:33.437Z,94.64
2022-11-08T02:29:28.633Z,94.49
2022-11-08T02:31:56.656Z,94.52
2022-11-08T02:34:29.825Z,94.20
2022-11-08T02:36:56.977Z,94.38
2022-11-08T02:39:24.243Z,94.10
2022-11-08T02:41:51.567Z,94.11
2022-11-08T02:44:18.350Z,93.82
2022-11-08T02:46:45.270Z,93.65
2022-11-08T02:49:12.142Z,93.85
2022-11-08T02:51:39.266Z,93.61
2022-11-08T02:54:06.516Z,93.86
2022-11-08T02:56:33.386Z,93.57
2022-11-08T02:59:00.272Z,93.29
2022-11-08T03:01:27.163Z,93.38
2022-11-08T03:03:54.066Z,93.27
2022-11-08T03:06:20.951Z,92.91
2022-11-08T03:08:47.714Z,92.95
2022-11-08T03:11:14.471Z,93.65
2022-11-08T03:13:41.278Z,92.94
2022-11-08T03:16:08.406Z,92.75
2022-11-08T03:18:35.338Z,92.93
2022-11-08T03:21:02.195Z,93.02
2022-11-08T03:23:29.214Z,92.92
2022-11-08T03:25:55.994Z,92.44
2022-11-08T03:28:23.639Z,92.06
2022-11-08T03:30:53.242Z,91.92
2022-11-08T03:33:21.034Z,91.74
2022-11-08T03:35:49.197Z,92.08
2022-11-08T03:38:16.907Z,92.03
2022-11-08T03:40:45.326Z,92.00
2022-11-08T03:43:12.279Z,92.36
2022-11-08T03:45:39.130Z,92.31
2022-11-08T03:48:06.363Z,92.81
2022-11-08T03:50:33.401Z,92.88
2022-11-08T03:53:00.231Z,93.24
2022-11-08T03:55:28.706Z,93.02
2022-11-08T03:57:55.610Z,92.96
2022-11-08T04:00:28.533Z,93.48
2022-11-08T04:03:03.154Z,93.57
2022-11-08T04:05:32.506Z,94.12
2022-11-08T04:08:01.289Z,94.47
2022-11-08T04:10:28.531Z,94.77
2022-11-08T04:13:13.721Z,95.04
2022-11-08T04:15:40.536Z,94.98
2022-11-08T04:18:25.708Z,95.08
2022-11-08T04:21:11.139Z,94.88
2022-11-08T04:23:38.248Z,95.70
2022-11-08T04:26:08.039Z,95.58
2022-11-08T04:28:37.223Z,95.29
2022-11-08T04:31:17.902Z,94.94
2022-11-08T04:33:44.858Z,94.95
2022-11-08T04:36:15.713Z,95.21
2022-11-08T04:38:43.033Z,94.92
2022-11-08T04:41:13.841Z,94.89
2022-11-08T04:43:41.020Z,95.06
2022-11-08T04:46:14.034Z,95.16
2022-11-08T04:48:43.150Z,95.30
2022-11-08T04:51:20.292Z,95.51
2022-11-08T04:53:47.380Z,95.55
2022-11-08T04:56:20.040Z,96.02
2022-11-08T04:58:56.599Z,96.12
2022-11-08T05:01:27.326Z,96.45
2022-11-08T05:03:54.962Z,96.60
2022-11-08T05:06:25.748Z,96.85
2022-11-08T05:08:55.320Z,97.04
2022-11-08T05:11:25.592Z,97.33
2022-11-08T05:13:53.043Z,97.16
2022-11-08T05:16:28.230Z,97.18
2022-11-08T05:18:55.370Z,97.09
2022-11-08T05:21:41.930Z,97.49
2022-11-08T05:24:12.954Z,97.52
2022-11-08T05:26:42.719Z,97.56
2022-11-08T05:29:10.301Z,97.64
2022-11-08T05:31:37.547Z,97.61
2022-11-08T05:34:04.714Z,97.76
2022-11-08T05:36:31.503Z,98.23
2022-11-08T05:38:58.302Z,98.21
2022-11-08T05:41:26.642Z,98.25
2022-11-08T05:43:55.514Z,98.45
2022-11-08T05:46:23.757Z,98.17
2022-11-08T05:48:51.117Z,98.21
2022-11-08T05:51:19.413Z,97.61
2022-11-08T05:53:48.711Z,97.77
2022-11-08T05:56:16.726Z,97.35
2022-11-08T05:58:43.734Z,97.52
2022-11-08T06:01:14.471Z,97.82
2022-11-08T06:03:41.636Z,98.02
2022-11-08T06:06:12.733Z,98.11
2022-11-08T06:08:41.882Z,98.42
2022-11-08T06:11:32.815Z,98.56
2022-11-08T06:13:59.577Z,98.88
2022-11-08T06:16:26.425Z,98.95
2022-11-08T06:18:53.375Z,98.81
2022-11-08T06:21:22.045Z,99.34
2022-11-08T06:23:53.998Z,99.83
2022-11-08T06:26:23.180Z,100.00
2022-11-08T06:28:50.329Z,100.00
2022-11-08T06:31:17.148Z,100.00
2022-11-08T06:33:43.905Z,100.00
2022-11-08T06:36:10.872Z,100.00
2022-11-08T06:38:37.736Z,100.00
2022-11-08T06:41:04.591Z,100.00
2022-11-08T06:43:31.348Z,100.00
2022-11-08T06:46:04.299Z,100.00
2022-11-08T06:48:35.438Z,100.00
2022-11-08T06:51:03.187Z,100.00
2022-11-08T06:53:30.484Z,100.00
2022-11-08T06:56:00.211Z,100.00
2022-11-08T06:58:27.089Z,100.00
2022-11-08T07:00:53.883Z,100.00
2022-11-08T07:03:20.972Z,100.00
2022-11-08T07:05:47.859Z,100.00
2022-11-08T07:08:15.354Z,100.00
2022-11-08T07:10:44.879Z,100.00
2022-11-08T07:13:14.505Z,100.00
2022-11-08T07:15:42.464Z,100.00
2022-11-08T07:18:15.381Z,100.00
2022-11-08T07:20:42.930Z,100.00
2022-11-08T07:23:11.703Z,100.00
2022-11-08T07:25:38.881Z,100.00
2022-11-08T07:28:08.216Z,100.00
2022-11-08T07:30:35.969Z,100.00
2022-11-08T07:33:03.710Z,100.00
2022-11-08T07:35:30.931Z,100.00
2022-11-08T07:37:57.807Z,100.00
2022-11-08T07:40:25.094Z,100.00
2022-11-08T07:45:39.194Z,100.00
2022-11-08T07:48:12.381Z,100.00
2022-11-08T07:50:42.004Z,100.00
2022-11-08T07:53:09.163Z,100.00
2022-11-08T07:55:37.830Z,99.95
2022-11-08T07:58:05.963Z,100.00
2022-11-08T08:00:38.511Z,99.83
2022-11-08T08:03:08.621Z,99.87
2022-11-08T08:05:40.138Z,99.59
2022-11-08T08:08:08.305Z,99.49
2022-11-08T08:10:35.850Z,99.74
2022-11-08T08:13:03.270Z,99.64
2022-11-08T08:15:30.066Z,99.43
2022-11-08T08:18:01.484Z,99.42
2022-11-08T08:20:29.342Z,98.94
2022-11-08T08:22:56.411Z,98.70
2022-11-08T08:25:23.455Z,99.10
2022-11-08T08:27:53.261Z,98.78
2022-11-08T08:30:21.243Z,98.39
2022-11-08T08:33:02.429Z,98.64
2022-11-08T08:35:37.482Z,98.75
2022-11-08T08:38:05.963Z,98.97
2022-11-08T08:40:34.318Z,98.68
2022-11-08T08:43:03.473Z,98.21
2022-11-08T08:45:32.299Z,98.56
2022-11-08T08:48:00.211Z,98.22
2022-11-08T08:50:30.852Z,98.31
2022-11-08T08:53:03.819Z,97.95
2022-11-08T08:55:31.792Z,97.68
2022-11-08T08:57:58.793Z,97.13
2022-11-08T09:03:13.471Z,96.72
2022-11-08T09:05:44.279Z,96.40
2022-11-08T09:08:12.623Z,96.52
2022-11-08T09:10:39.384Z,96.31
2022-11-08T09:13:06.616Z,96.19
2022-11-08T09:15:33.634Z,96.45
2022-11-08T09:18:01.228Z,96.09
2022-11-08T09:20:28.479Z,95.69
2022-11-08T09:22:55.258Z,95.66
2022-11-08T09:25:22.121Z,95.86
2022-11-08T09:27:48.892Z,95.76
2022-11-08T09:30:15.648Z,95.56
2022-11-08T09:35:30.185Z,95.61
2022-11-08T09:37:58.401Z,94.77
2022-11-08T09:40:39.115Z,94.44
2022-11-08T09:43:33.228Z,94.33
2022-11-08T09:46:00.233Z,94.22
2022-11-08T09:48:42.098Z,93.85
2022-11-08T09:51:20.306Z,92.95
2022-11-08T09:53:55.703Z,93.10
2022-11-08T09:56:24.174Z,92.92
2022-11-08T09:59:04.809Z,93.03
2022-11-08T10:01:34.803Z,92.95
2022-11-08T10:04:24.724Z,93.04
2022-11-08T10:07:02.124Z,92.53
2022-11-08T10:10:03.420Z,92.05
2022-11-08T10:12:41.680Z,92.09
2022-11-08T10:15:24.186Z,90.73
2022-11-08T10:18:16.984Z,90.63
2022-11-08T10:21:08.702Z,90.08
2022-11-08T10:23:45.052Z,90.28
2022-11-08T10:26:37.757Z,90.12
2022-11-08T10:29:26.343Z,89.37
2022-11-08T10:32:20.499Z,89.63
2022-11-08T10:35:00.249Z,88.85
2022-11-08T10:37:28.838Z,88.97
2022-11-08T10:40:06.213Z,88.49
2022-11-08T10:42:52.164Z,87.76
2022-11-08T10:45:19.004Z,87.12
2022-11-08T10:47:47.308Z,87.63
2022-11-08T10:50:35.070Z,87.06
2022-11-08T10:53:04.073Z,86.65
2022-11-08T10:55:38.490Z,85.92
2022-11-08T10:58:45.507Z,85.99
2022-11-08T11:01:19.023Z,85.37
2022-11-08T11:03:48.710Z,85.36
2022-11-08T11:06:33.151Z,85.33
2022-11-08T11:09:22.157Z,84.52
2022-11-08T11:12:01.096Z,84.12
2022-11-08T11:14:27.970Z,84.09
2022-11-08T11:17:04.835Z,83.31
2022-11-08T11:19:32.321Z,82.19
2022-11-08T11:22:07.729Z,82.92
2022-11-08T11:24:36.982Z,81.33
2022-11-08T11:27:07.987Z,81.29
2022-11-08T11:29:39.802Z,81.09
2022-11-08T11:32:36.662Z,81.36
2022-11-08T11:35:07.004Z,80.50
2022-11-08T11:37:44.459Z,79.62
2022-11-08T11:40:26.966Z,79.04
2022-11-08T11:43:21.104Z,78.27
2022-11-08T11:46:12.207Z,78.05
2022-11-08T11:48:46.177Z,77.86
2022-11-08T11:51:13.875Z,77.11
2022-11-08T11:53:47.504Z,76.55
2022-11-08T11:56:28.145Z,76.50
2022-11-08T11:59:22.438Z,77.31
2022-11-08T12:01:49.397Z,78.01
2022-11-08T12:04:25.209Z,78.72
2022-11-08T12:07:10.262Z,79.18
2022-11-08T12:10:10.094Z,79.59
2022-11-08T12:13:11.711Z,78.82
2022-11-08T12:15:49.620Z,79.27
2022-11-08T12:18:42.253Z,78.81
2022-11-08T12:21:44.609Z,76.98
2022-11-08T12:24:25.495Z,74.25
2022-11-08T12:27:16.124Z,72.95
2022-11-08T12:29:53.816Z,72.80
2022-11-08T12:32:47.852Z,73.70
2022-11-08T12:35:59.312Z,72.26
2022-11-08T12:38:35.564Z,71.73
2022-11-08T12:41:34.851Z,71.38
2022-11-08T12:44:40.586Z,69.93
2022-11-08T12:47:19.381Z,69.97
2022-11-08T12:50:33.905Z,70.23
2022-11-08T12:53:22.401Z,70.49
2022-11-08T12:55:51.911Z,69.93
2022-11-08T12:58:21.509Z,70.15
2022-11-08T13:00:52.554Z,71.66
2022-11-08T13:03:59.527Z,78.28
2022-11-08T13:06:47.065Z,78.17
2022-11-08T13:09:37.546Z,79.58
2022-11-08T13:12:31.077Z,81.10
2022-11-08T13:15:01.801Z,82.29
2022-11-08T13:17:30.514Z,82.97
2022-11-08T13:20:04.452Z,83.89
2022-11-08T13:22:32.385Z,84.04
2022-11-08T13:25:06.285Z,84.10
2022-11-08T13:27:36.030Z,84.92
2022-11-08T13:30:26.182Z,85.47
2022-11-08T13:33:01.933Z,85.46
2022-11-08T13:36:04.674Z,85.55
2022-11-08T13:38:39.083Z,85.71
2022-11-08T13:41:08.658Z,85.43
2022-11-08T13:43:36.431Z,85.73
2022-11-08T13:46:27.430Z,85.45
2022-11-08T13:49:05.271Z,85.54
2022-11-08T13:51:39.661Z,85.16
2022-11-08T13:54:21.774Z,85.29
2022-11-08T13:56:56.758Z,85.40
2022-11-08T13:59:32.928Z,85.31
2022-11-08T14:02:24.578Z,83.47
2022-11-08T14:04:54.039Z,84.19
2022-11-08T14:07:40.865Z,84.43
2022-11-08T14:10:23.382Z,85.06
2022-11-08T14:13:07.913Z,85.81
2022-11-08T14:15:40.399Z,86.25
2022-11-08T14:18:34.349Z,85.65
2022-11-08T14:21:04.118Z,85.70
2022-11-08T14:23:40.839Z,86.39
2022-11-08T14:26:15.678Z,86.08
2022-11-08T14:28:45.601Z,86.00
2022-11-08T14:31:33.179Z,86.05
2022-11-08T14:34:01.702Z,85.98
2022-11-08T14:36:31.694Z,86.18
2022-11-08T14:39:16.682Z,86.44
2022-11-08T14:41:55.449Z,86.48
2022-11-08T14:44:23.850Z,86.62
2022-11-08T14:46:51.623Z,86.44
2022-11-08T14:49:31.007Z,86.39
2022-11-08T14:52:17.464Z,86.42
2022-11-08T14:54:47.476Z,86.93
2022-11-08T14:57:41.745Z,86.67
2022-11-08T15:00:16.771Z,86.61
2022-11-08T15:02:47.550Z,87.22
2022-11-08T15:05:38.336Z,87.12
2022-11-08T15:08:18.355Z,87.22
2022-11-08T15:11:08.303Z,87.06
2022-11-08T15:13:51.769Z,87.02
2022-11-08T15:16:18.691Z,86.86
2022-11-08T15:18:45.831Z,87.26
2022-11-08T15:21:13.406Z,86.83
2022-11-08T15:23:44.476Z,86.83
2022-11-08T15:26:35.049Z,86.42
2022-11-08T15:36:54.448Z,86.08
2022-11-08T15:39:32.719Z,85.71
2022-11-08T15:42:11.814Z,85.67
2022-11-08T15:45:01.115Z,84.75
2022-11-08T15:47:40.055Z,84.48
2022-11-08T15:50:23.566Z,84.69
2022-11-08T15:52:53.871Z,84.11
2022-11-08T15:55:49.520Z,84.34
2022-11-08T15:58:40.001Z,84.12
2022-11-08T16:01:07.342Z,83.96
2022-11-08T16:03:34.918Z,84.14
2022-11-08T16:06:01.760Z,83.69
2022-11-08T16:08:28.797Z,84.19
2022-11-08T16:11:00.479Z,83.80
2022-11-08T16:13:33.288Z,84.26
2022-11-08T16:16:01.521Z,84.12
2022-11-08T16:18:28.548Z,83.55
2022-11-08T16:20:55.296Z,83.89
2022-11-08T16:23:22.060Z,83.59
2022-11-08T16:25:55.350Z,83.70
2022-11-08T16:28:30.583Z,84.04
2022-11-08T16:30:57.785Z,84.39
2022-11-08T16:33:30.652Z,84.27
2022-11-08T16:36:00.947Z,84.96
2022-11-08T16:38:36.132Z,85.50
2022-11-08T16:41:04.876Z,85.94
2022-11-08T16:43:32.304Z,86.32
2022-11-08T16:46:06.786Z,86.65
2022-11-08T16:48:36.808Z,87.41
2022-11-08T16:51:07.647Z,87.23
2022-11-08T16:53:36.846Z,88.70
2022-11-08T16:56:04.162Z,88.19
2022-11-08T16:58:30.911Z,88.36
2022-11-08T17:00:57.847Z,88.45
2022-11-08T17:03:27.518Z,88.55
2022-11-08T17:05:54.362Z,88.27
2022-11-08T17:08:22.045Z,88.45
2022-11-08T17:10:49.006Z,88.81
2022-11-08T17:13:18.310Z,89.39
2022-11-08T17:15:46.283Z,89.68
2022-11-08T17:18:16.859Z,89.54
2022-11-08T17:20:44.368Z,89.72
2022-11-08T17:23:12.189Z,89.70
2022-11-08T17:25:43.096Z,89.74
2022-11-08T17:28:12.372Z,89.64
2022-11-08T17:30:44.634Z,89.92
2022-11-08T17:33:13.495Z,89.66
2022-11-08T17:35:44.220Z,89.58
2022-11-08T17:38:12.507Z,89.43
2022-11-08T17:40:39.428Z,89.81
2022-11-08T17:43:06.206Z,90.24
2022-11-08T17:45:33.352Z,90.20
2022-11-08T17:48:00.147Z,90.12
2022-11-08T17:50:26.871Z,90.38
2022-11-08T17:52:54.806Z,90.72
2022-11-08T17:55:21.804Z,91.73
2022-11-08T17:57:48.585Z,91.97
2022-11-08T18:00:16.514Z,92.70
2022-11-08T18:02:43.515Z,92.72
2022-11-08T18:05:10.324Z,92.30
2022-11-08T18:07:38.557Z,92.62
2022-11-08T18:10:07.203Z,92.90
2022-11-08T18:12:34.036Z,92.67
2022-11-08T18:15:01.234Z,92.84
2022-11-08T18:17:28.007Z,93.42
2022-11-08T18:19:54.876Z,93.43
2022-11-08T18:22:21.957Z,93.38
2022-11-08T18:24:50.102Z,93.53
2022-11-08T18:27:17.542Z,93.42
2022-11-08T18:29:44.577Z,93.97
2022-11-08T18:32:11.335Z,93.87
2022-11-08T18:34:38.130Z,93.46
2022-11-08T18:37:04.903Z,93.12
2022-11-08T18:39:31.685Z,93.01
2022-11-08T18:41:58.479Z,92.84
2022-11-08T18:44:25.255Z,92.85
2022-11-08T18:46:52.078Z,93.03
2022-11-08T18:49:18.873Z,92.95
2022-11-08T18:51:46.468Z,93.53
2022-11-08T18:54:13.276Z,93.81
2022-11-08T18:56:40.044Z,94.11
2022-11-08T18:59:06.993Z,93.67
2022-11-08T19:01:33.930Z,94.04
2022-11-08T19:04:00.818Z,93.69
2022-11-08T19:06:27.690Z,94.02
2022-11-08T19:08:54.614Z,94.64
2022-11-08T19:11:23.048Z,94.71
2022-11-08T19:13:50.176Z,94.67
2022-11-08T19:16:20.388Z,95.40
2022-11-08T19:18:49.311Z,95.68
2022-11-08T19:21:25.529Z,95.71
2022-11-08T19:23:54.685Z,95.71
2022-11-08T19:26:24.529Z,95.79
2022-11-08T19:28:54.276Z,96.38
2022-11-08T19:31:24.505Z,96.34
2022-11-08T19:33:53.986Z,96.63
2022-11-08T19:36:27.237Z,96.97
2022-11-08T19:38:55.063Z,96.80
2022-11-08T19:41:27.377Z,97.01
2022-11-08T19:43:55.194Z,97.91
2022-11-08T19:46:32.615Z,97.24
2022-11-08T19:49:02.720Z,97.02
2022-11-08T19:51:34.995Z,97.09
2022-11-08T19:54:05.735Z,97.13
2022-11-08T19:59:21.624Z,97.92
2022-11-08T20:01:48.596Z,97.99
2022-11-08T20:04:15.619Z,97.67
2022-11-08T20:06:42.715Z,97.39
2022-11-08T20:09:10.896Z,97.60
2022-11-08T20:11:42.725Z,97.82
2022-11-08T20:14:12.973Z,97.72
2022-11-08T20:16:42.992Z,97.65
2022-11-08T20:19:14.016Z,97.72
2022-11-08T20:21:42.715Z,97.81
2022-11-08T20:24:11.226Z,97.77
2022-11-08T20:26:39.561Z,97.90
2022-11-08T20:29:09.706Z,98.78
2022-11-08T20:31:37.379Z,98.77
2022-11-08T20:34:07.513Z,99.11
2022-11-08T20:36:37.779Z,99.87
2022-11-08T20:39:08.014Z,99.78
2022-11-08T20:41:37.869Z,99.42
2022-11-08T20:44:06.431Z,98.87
2022-11-08T20:46:34.313Z,99.37
2022-11-08T20:49:02.067Z,99.24
2022-11-08T20:51:30.769Z,99.49
2022-11-08T20:54:00.389Z,99.58
2022-11-08T20:56:28.371Z,99.45
2022-11-08T20:58:55.512Z,99.17
2022-11-08T21:01:26.864Z,98.94
2022-11-08T21:03:53.910Z,99.72
2022-11-08T21:06:23.446Z,99.59
2022-11-08T21:09:00.718Z,99.61
2022-11-08T21:11:30.946Z,99.86
2022-11-08T21:13:58.208Z,99.65
2022-11-08T21:16:42.696Z,99.75
2022-11-08T21:19:11.931Z,99.70
2022-11-08T21:21:38.667Z,99.59
2022-11-08T21:24:06.346Z,99.60
2022-11-08T21:26:36.554Z,99.23
2022-11-08T21:29:05.284Z,99.59
2022-11-08T21:31:33.885Z,99.44
2022-11-08T21:34:01.047Z,99.89
2022-11-08T21:36:29.361Z,99.82
2022-11-08T21:38:56.538Z,99.56
2022-11-08T21:41:23.356Z,99.18
2022-11-08T21:43:50.517Z,99.73
2022-11-08T21:46:24.242Z,99.21
2022-11-08T21:49:00.874Z,99.54
2022-11-08T21:51:30.369Z,99.28
2022-11-08T21:53:59.088Z,99.19
2022-11-08T21:56:31.149Z,99.19
2022-11-08T21:58:59.005Z,99.52
2022-11-08T22:01:30.203Z,99.92
2022-11-08T22:04:00.972Z,99.96
2022-11-08T22:06:29.088Z,100.00
2022-11-08T22:08:56.131Z,99.98
2022-11-08T22:11:22.965Z,100.00
2022-11-08T22:13:50.204Z,100.00
2022-11-08T22:16:17.159Z,100.00
2022-11-08T22:19:04.756Z,100.00
2022-11-08T22:21:40.460Z,100.00
2022-11-08T22:24:20.588Z,100.00
2022-11-08T22:26:49.580Z,100.00
2022-11-08T22:29:17.325Z,100.00
2022-11-08T22:31:44.884Z,100.00
2022-11-08T22:34:12.980Z,100.00
2022-11-08T22:36:45.205Z,100.00
2022-11-08T22:39:18.679Z,100.00
2022-11-08T22:41:47.587Z,100.00
2022-11-08T22:44:15.797Z,100.00
2022-11-08T22:46:44.775Z,100.00
2022-11-08T22:49:12.763Z,100.00
2022-11-08T22:51:40.702Z,100.00
2022-11-08T22:54:08.179Z,100.00
2022-11-08T22:56:36.130Z,100.00
2022-11-08T22:59:03.649Z,100.00
2022-11-08T23:01:30.494Z,100.00
2022-11-08T23:03:57.435Z,100.00
2022-11-08T23:06:24.267Z,100.00
2022-11-08T23:08:51.448Z,100.00
2022-11-08T23:11:37.388Z,100.00
2022-11-08T23:14:23.629Z,100.00
2022-11-08T23:16:50.498Z,100.00
2022-11-08T23:19:39.913Z,100.00
2022-11-08T23:22:33.438Z,100.00
2022-11-08T23:25:00.264Z,100.00
2022-11-08T23:27:46.016Z,100.00
2022-11-08T23:30:34.392Z,100.00
2022-11-08T23:33:01.361Z,100.00
2022-11-08T23:35:28.196Z,100.00
2022-11-08T23:37:55.367Z,100.00
2022-11-08T23:40:41.178Z,100.00
2022-11-08T23:43:38.055Z,100.00
2022-11-08T23:46:11.379Z,100.00
2022-11-08T23:48:40.424Z,100.00
2022-11-08T23:51:08.225Z,100.00
2022-11-08T23:53:37.357Z,100.00
2022-11-08T23:56:05.610Z,100.00
2022-11-08T23:58:33.107Z,100.00
